Time;durP1;ratioP1;P1;durP2;ratioP2;P2;SDS_P1;SDS_P2;PMS_P1;PMS_P2;Temp;Humidity;BMP_temperature;BMP_pressure;BME280_temperature;BME280_humidity;BME280_pressure;Samples;Min_cycle;Max_cycle;Signal;HPM_P1;HPM_P2
2023/07/25 00:00:00;;;;;;;4.88;1.85;;;;;;;;;;5065103;28;20192;-80
2023/07/25 00:02:25;;;;;;;2.97;1.63;;;;;;;;;;5067159;28;20071;-81
2023/07/25 00:04:51;;;;;;;3.08;1.50;;;;;;;;;;5074854;28;20033;-80
2023/07/25 00:07:16;;;;;;;2.83;1.55;;;;;;;;;;5074105;28;20250;-80
2023/07/25 00:09:42;;;;;;;2.85;1.60;;;;;;;;;;5064111;28;20038;-80
2023/07/25 00:12:07;;;;;;;3.15;1.73;;;;;;;;;;5065192;28;20037;-80
2023/07/25 00:14:34;;;;;;;2.65;1.60;;;;;;;;;;5068429;28;20040;-80
2023/07/25 00:17:01;;;;;;;2.67;1.70;;;;;;;;;;5062488;28;20066;-80
2023/07/25 00:19:26;;;;;;;2.97;1.70;;;;;;;;;;5066647;28;20082;-81
2023/07/25 00:21:52;;;;;;;2.55;1.70;;;;;;;;;;5073546;28;20025;-80
2023/07/25 00:24:17;;;;;;;2.85;1.52;;;;;;;;;;5063202;28;20136;-80
2023/07/25 00:26:43;;;;;;;3.13;1.90;;;;;;;;;;5054352;28;20031;-80
2023/07/25 00:29:09;;;;;;;5.18;1.60;;;;;;;;;;5075642;28;20062;-80
2023/07/25 00:31:34;;;;;;;3.17;1.70;;;;;;;;;;5076791;28;20059;-79
2023/07/25 00:34:00;;;;;;;3.33;1.90;;;;;;;;;;5053915;28;20120;-80
2023/07/25 00:36:25;;;;;;;4.60;1.90;;;;;;;;;;5056812;28;20082;-80
2023/07/25 00:38:51;;;;;;;4.60;1.88;;;;;;;;;;5069757;28;20066;-80
2023/07/25 00:41:17;;;;;;;2.40;1.58;;;;;;;;;;5072623;28;20087;-80
2023/07/25 00:43:42;;;;;;;2.70;1.70;;;;;;;;;;5049374;28;20124;-80
2023/07/25 00:46:08;;;;;;;4.15;1.90;;;;;;;;;;5071737;28;20029;-80
2023/07/25 00:48:33;;;;;;;3.13;1.70;;;;;;;;;;5062015;28;20068;-80
2023/07/25 00:50:59;;;;;;;2.38;1.60;;;;;;;;;;5064668;28;20114;-80
2023/07/25 00:53:25;;;;;;;3.25;1.90;;;;;;;;;;5070278;28;20076;-80
2023/07/25 00:55:51;;;;;;;3.83;1.85;;;;;;;;;;5074651;28;20033;-80
2023/07/25 00:58:17;;;;;;;2.95;1.80;;;;;;;;;;5060529;28;20045;-80
2023/07/25 01:00:43;;;;;;;4.85;2.17;;;;;;;;;;5049671;28;20083;-81
2023/07/25 01:03:10;;;;;;;3.35;1.70;;;;;;;;;;5073468;28;20041;-81
2023/07/25 01:05:41;;;;;;;2.70;1.70;;;;;;;;;;5070848;28;20093;-80
2023/07/25 01:08:07;;;;;;;2.92;1.70;;;;;;;;;;5057229;28;20045;-81
2023/07/25 01:10:34;;;;;;;4.90;1.85;;;;;;;;;;5066168;28;20051;-80
2023/07/25 01:13:00;;;;;;;2.83;2.00;;;;;;;;;;5065394;28;20114;-80
2023/07/25 01:15:27;;;;;;;4.10;1.58;;;;;;;;;;5070280;28;20025;-81
2023/07/25 01:17:53;;;;;;;4.80;1.77;;;;;;;;;;5067798;28;20059;-81
2023/07/25 01:20:19;;;;;;;2.45;1.80;;;;;;;;;;5072359;28;20033;-81
2023/07/25 01:22:45;;;;;;;2.45;1.85;;;;;;;;;;5059007;28;20033;-81
2023/07/25 01:25:11;;;;;;;2.42;1.80;;;;;;;;;;5062567;28;20064;-81
2023/07/25 01:27:37;;;;;;;2.97;2.00;;;;;;;;;;5074292;28;20029;-81
2023/07/25 01:30:03;;;;;;;4.43;1.70;;;;;;;;;;5069790;28;20029;-81
2023/07/25 01:32:30;;;;;;;3.47;2.00;;;;;;;;;;5058916;28;20033;-81
2023/07/25 01:34:55;;;;;;;5.10;1.83;;;;;;;;;;5068073;28;20108;-81
2023/07/25 01:37:21;;;;;;;3.38;1.80;;;;;;;;;;5079162;28;20118;-81
2023/07/25 01:39:47;;;;;;;2.90;1.80;;;;;;;;;;5067413;28;20058;-81
2023/07/25 01:42:12;;;;;;;4.63;2.28;;;;;;;;;;5058822;28;20403;-80
2023/07/25 01:44:38;;;;;;;3.05;1.80;;;;;;;;;;5051172;28;20037;-80
2023/07/25 01:47:04;;;;;;;2.63;1.83;;;;;;;;;;5063646;28;20032;-81
2023/07/25 01:49:29;;;;;;;2.33;1.70;;;;;;;;;;5053965;28;20156;-80
2023/07/25 01:51:55;;;;;;;2.58;1.80;;;;;;;;;;5070313;28;20037;-81
2023/07/25 01:54:20;;;;;;;3.78;1.80;;;;;;;;;;5067630;28;20063;-81
2023/07/25 01:56:46;;;;;;;2.70;1.90;;;;;;;;;;5065795;28;20404;-80
2023/07/25 01:59:12;;;;;;;2.75;1.90;;;;;;;;;;5059768;28;20017;-81
2023/07/25 02:01:38;;;;;;;3.90;1.77;;;;;;;;;;5077786;28;20037;-81
2023/07/25 02:04:03;;;;;;;4.50;2.05;;;;;;;;;;5068237;28;20059;-81
2023/07/25 02:06:29;;;;;;;3.30;1.67;;;;;;;;;;5054360;28;20034;-81
2023/07/25 02:08:54;;;;;;;3.13;2.03;;;;;;;;;;5057168;28;20037;-81
2023/07/25 02:11:20;;;;;;;6.78;1.80;;;;;;;;;;5076964;28;20535;-81
2023/07/25 02:13:45;;;;;;;3.00;1.77;;;;;;;;;;5071894;28;20037;-81
2023/07/25 02:16:11;;;;;;;2.78;1.80;;;;;;;;;;5058407;28;20028;-80
2023/07/25 02:18:36;;;;;;;2.53;1.88;;;;;;;;;;5050172;28;20051;-81
2023/07/25 02:21:02;;;;;;;5.60;1.83;;;;;;;;;;5059327;28;20032;-81
2023/07/25 02:23:28;;;;;;;3.03;1.90;;;;;;;;;;5052203;28;20048;-81
2023/07/25 02:25:53;;;;;;;2.92;1.88;;;;;;;;;;5061167;28;20052;-81
2023/07/25 02:28:19;;;;;;;7.15;2.10;;;;;;;;;;5062741;28;20047;-81
2023/07/25 02:30:47;;;;;;;7.60;2.40;;;;;;;;;;5052722;28;20037;-81
2023/07/25 02:33:13;;;;;;;6.00;2.40;;;;;;;;;;5054678;28;20046;-82
2023/07/25 02:35:39;;;;;;;4.80;2.10;;;;;;;;;;5075602;28;20583;-81
2023/07/25 02:38:04;;;;;;;6.00;2.33;;;;;;;;;;5067525;28;20481;-81
2023/07/25 02:40:30;;;;;;;4.40;2.22;;;;;;;;;;5054127;28;20052;-81
2023/07/25 02:42:55;;;;;;;4.65;2.40;;;;;;;;;;5054402;28;20119;-81
2023/07/25 02:45:21;;;;;;;4.70;2.60;;;;;;;;;;5069655;28;20045;-81
2023/07/25 02:47:46;;;;;;;4.53;2.20;;;;;;;;;;5067603;28;20033;-81
2023/07/25 02:50:12;;;;;;;4.30;2.15;;;;;;;;;;5057326;28;20611;-81
2023/07/25 02:52:41;;;;;;;2.88;2.10;;;;;;;;;;5064283;28;20036;-81
2023/07/25 02:55:09;;;;;;;3.92;2.20;;;;;;;;;;5051801;28;20040;-81
2023/07/25 02:57:35;;;;;;;4.70;2.13;;;;;;;;;;5047808;28;20032;-81
2023/07/25 03:00:00;;;;;;;4.18;2.25;;;;;;;;;;5069538;28;20045;-81
2023/07/25 03:02:26;;;;;;;3.45;2.20;;;;;;;;;;5061251;28;20101;-81
2023/07/25 03:04:51;;;;;;;2.80;1.90;;;;;;;;;;5049016;28;20040;-81
2023/07/25 03:07:17;;;;;;;4.40;2.00;;;;;;;;;;5055443;28;20043;-81
2023/07/25 03:09:44;;;;;;;4.90;2.10;;;;;;;;;;5076628;28;20056;-81
2023/07/25 03:12:09;;;;;;;4.93;2.10;;;;;;;;;;5067481;28;20033;-82
2023/07/25 03:14:35;;;;;;;8.52;2.13;;;;;;;;;;5060974;28;20064;-82
2023/07/25 03:17:00;;;;;;;3.20;1.85;;;;;;;;;;5069538;28;20032;-81
2023/07/25 03:19:26;;;;;;;4.13;2.00;;;;;;;;;;5075964;28;20045;-82
2023/07/25 03:21:51;;;;;;;3.45;2.28;;;;;;;;;;5070367;28;20036;-81
2023/07/25 03:24:17;;;;;;;5.28;2.13;;;;;;;;;;5074375;28;20174;-81
2023/07/25 03:26:42;;;;;;;2.80;2.00;;;;;;;;;;5069767;28;20033;-82
2023/07/25 03:29:08;;;;;;;6.20;2.30;;;;;;;;;;5069923;28;20064;-81
2023/07/25 03:31:33;;;;;;;3.30;2.13;;;;;;;;;;5066168;28;20029;-81
2023/07/25 03:33:59;;;;;;;4.88;2.38;;;;;;;;;;5073056;28;20029;-81
2023/07/25 03:36:25;;;;;;;5.40;2.58;;;;;;;;;;5068049;28;20472;-81
2023/07/25 03:38:50;;;;;;;4.60;2.10;;;;;;;;;;5057138;28;20045;-81
2023/07/25 03:41:16;;;;;;;6.03;2.08;;;;;;;;;;5070625;28;20037;-82
2023/07/25 03:43:41;;;;;;;4.25;2.00;;;;;;;;;;5081307;28;20041;-82
2023/07/25 03:46:07;;;;;;;2.65;1.90;;;;;;;;;;5059610;28;20043;-80
2023/07/25 03:48:32;;;;;;;4.53;2.00;;;;;;;;;;5061692;28;20036;-80
2023/07/25 03:50:58;;;;;;;6.22;2.20;;;;;;;;;;5069388;28;20036;-81
2023/07/25 03:53:23;;;;;;;4.07;2.40;;;;;;;;;;5070998;28;20033;-81
2023/07/25 03:55:49;;;;;;;3.05;2.00;;;;;;;;;;5067966;28;20171;-80
2023/07/25 03:58:14;;;;;;;3.72;2.15;;;;;;;;;;5074128;28;20049;-80
2023/07/25 04:00:41;;;;;;;3.17;2.20;;;;;;;;;;5068622;28;20040;-80
2023/07/25 04:03:07;;;;;;;3.67;2.33;;;;;;;;;;5057682;28;20033;-81
2023/07/25 04:05:32;;;;;;;3.75;2.30;;;;;;;;;;5075124;28;20063;-81
2023/07/25 04:07:57;;;;;;;5.28;2.10;;;;;;;;;;5078660;28;20085;-81
2023/07/25 04:10:23;;;;;;;4.32;2.25;;;;;;;;;;5077141;28;20038;-81
2023/07/25 04:12:48;;;;;;;3.20;2.05;;;;;;;;;;5069586;28;20029;-81
2023/07/25 04:15:14;;;;;;;3.88;2.20;;;;;;;;;;5074650;28;20039;-80
2023/07/25 04:17:39;;;;;;;4.65;1.77;;;;;;;;;;5076209;28;20035;-81
2023/07/25 04:20:06;;;;;;;3.22;1.88;;;;;;;;;;5064143;28;20049;-81
2023/07/25 04:22:31;;;;;;;3.90;2.00;;;;;;;;;;5071970;28;20094;-81
2023/07/25 04:24:56;;;;;;;4.05;2.00;;;;;;;;;;5066564;28;20037;-81
2023/07/25 04:27:22;;;;;;;4.90;2.40;;;;;;;;;;5070508;28;20033;-81
2023/07/25 04:29:48;;;;;;;3.45;2.05;;;;;;;;;;5068785;28;20041;-81
2023/07/25 04:32:13;;;;;;;5.93;2.53;;;;;;;;;;5077158;28;20044;-81
2023/07/25 04:34:39;;;;;;;3.38;2.20;;;;;;;;;;5054622;28;20051;-81
2023/07/25 04:37:05;;;;;;;3.50;1.90;;;;;;;;;;5053716;28;20480;-81
2023/07/25 04:39:30;;;;;;;2.60;1.90;;;;;;;;;;5074958;28;20060;-81
2023/07/25 04:41:56;;;;;;;3.92;1.92;;;;;;;;;;5073324;28;20032;-81
2023/07/25 04:44:21;;;;;;;2.58;1.90;;;;;;;;;;5061964;28;20044;-81
2023/07/25 04:46:47;;;;;;;3.65;2.20;;;;;;;;;;5055112;28;20036;-81
2023/07/25 04:49:12;;;;;;;3.63;2.20;;;;;;;;;;5068852;28;20040;-81
2023/07/25 04:51:39;;;;;;;3.40;2.10;;;;;;;;;;5071650;28;20632;-81
2023/07/25 04:54:05;;;;;;;2.85;1.85;;;;;;;;;;5066297;28;20198;-81
2023/07/25 04:56:30;;;;;;;4.35;2.05;;;;;;;;;;5065333;28;20025;-81
2023/07/25 04:58:56;;;;;;;3.30;2.03;;;;;;;;;;5068307;28;20041;-81
2023/07/25 05:01:22;;;;;;;2.47;1.80;;;;;;;;;;5052132;28;20037;-81
2023/07/25 05:03:47;;;;;;;4.82;2.08;;;;;;;;;;5068587;28;20054;-81
2023/07/25 05:06:13;;;;;;;2.80;1.85;;;;;;;;;;5066852;28;20080;-81
2023/07/25 05:08:38;;;;;;;5.72;2.15;;;;;;;;;;5056272;28;20025;-81
2023/07/25 05:11:04;;;;;;;3.17;1.90;;;;;;;;;;5052717;28;20052;-80
2023/07/25 05:13:29;;;;;;;5.28;1.90;;;;;;;;;;5068282;28;20036;-81
2023/07/25 05:15:55;;;;;;;3.85;1.80;;;;;;;;;;5067170;28;20310;-81
2023/07/25 05:18:20;;;;;;;3.45;1.90;;;;;;;;;;5053168;28;20041;-81
2023/07/25 05:20:46;;;;;;;2.55;1.80;;;;;;;;;;5050936;28;20418;-81
2023/07/25 05:23:11;;;;;;;3.40;1.95;;;;;;;;;;5061061;28;20041;-81
2023/07/25 05:25:38;;;;;;;2.95;2.10;;;;;;;;;;5066061;28;20573;-80
2023/07/25 05:28:03;;;;;;;4.07;1.90;;;;;;;;;;5056746;28;20041;-81
2023/07/25 05:30:29;;;;;;;4.65;1.80;;;;;;;;;;5064486;28;20078;-81
2023/07/25 05:32:54;;;;;;;2.58;1.63;;;;;;;;;;5053926;28;20035;-81
2023/07/25 05:35:19;;;;;;;3.67;1.60;;;;;;;;;;5055746;28;20036;-80
2023/07/25 05:37:45;;;;;;;2.72;1.55;;;;;;;;;;5071297;28;20040;-81
2023/07/25 05:40:10;;;;;;;3.05;1.55;;;;;;;;;;5057096;28;20040;-80
2023/07/25 05:42:36;;;;;;;5.10;1.85;;;;;;;;;;5060702;28;20471;-81
2023/07/25 05:45:02;;;;;;;2.35;1.70;;;;;;;;;;5056522;28;20707;-81
2023/07/25 05:47:28;;;;;;;3.28;1.70;;;;;;;;;;5067054;28;20031;-81
2023/07/25 05:49:54;;;;;;;4.15;1.65;;;;;;;;;;5069004;28;20063;-83
2023/07/25 05:52:20;;;;;;;3.28;1.50;;;;;;;;;;5055249;28;20067;-81
2023/07/25 05:54:45;;;;;;;3.53;1.50;;;;;;;;;;5056879;28;20029;-80
2023/07/25 05:57:11;;;;;;;3.10;2.05;;;;;;;;;;5047947;28;20029;-79
2023/07/25 05:59:36;;;;;;;2.75;1.80;;;;;;;;;;5055600;28;20086;-79
2023/07/25 06:02:03;;;;;;;2.70;1.80;;;;;;;;;;5052542;28;20037;-79
2023/07/25 06:04:30;;;;;;;3.50;1.60;;;;;;;;;;5056320;28;20047;-79
2023/07/25 06:06:55;;;;;;;3.13;1.80;;;;;;;;;;5044363;28;20112;-79
2023/07/25 06:09:21;;;;;;;3.47;1.75;;;;;;;;;;5040628;28;20137;-80
2023/07/25 06:11:46;;;;;;;4.03;2.05;;;;;;;;;;5066418;28;20036;-79
2023/07/25 06:14:12;;;;;;;3.13;1.75;;;;;;;;;;5055349;28;20028;-79
2023/07/25 06:16:37;;;;;;;4.57;2.30;;;;;;;;;;5045405;28;20040;-79
2023/07/25 06:19:03;;;;;;;4.75;1.65;;;;;;;;;;5048074;28;20048;-80
2023/07/25 06:21:29;;;;;;;2.63;1.60;;;;;;;;;;5067563;28;20411;-81
2023/07/25 06:23:54;;;;;;;3.53;1.70;;;;;;;;;;5064513;28;20086;-80
2023/07/25 06:26:20;;;;;;;3.13;1.60;;;;;;;;;;5051216;28;20068;-80
2023/07/25 06:28:45;;;;;;;2.47;1.48;;;;;;;;;;5060337;28;20033;-81
2023/07/25 06:31:10;;;;;;;3.65;1.88;;;;;;;;;;5051848;28;20136;-83
2023/07/25 06:33:36;;;;;;;3.10;2.08;;;;;;;;;;5066219;28;20021;-81
2023/07/25 06:36:01;;;;;;;4.13;2.03;;;;;;;;;;5066297;28;20116;-81
2023/07/25 06:38:27;;;;;;;5.13;2.42;;;;;;;;;;5067668;28;20041;-80
2023/07/25 06:40:52;;;;;;;4.53;2.15;;;;;;;;;;5053231;28;20068;-80
2023/07/25 06:43:18;;;;;;;6.15;2.10;;;;;;;;;;5052005;28;20041;-81
2023/07/25 06:45:44;;;;;;;4.60;2.08;;;;;;;;;;5078303;28;20028;-81
2023/07/25 06:48:09;;;;;;;2.40;1.80;;;;;;;;;;5072237;28;20029;-82
2023/07/25 06:50:35;;;;;;;5.55;1.85;;;;;;;;;;5060585;28;20033;-81
2023/07/25 06:53:04;;;;;;;4.47;1.75;;;;;;;;;;5056257;28;20717;-80
2023/07/25 06:55:29;;;;;;;5.43;1.70;;;;;;;;;;5069220;28;20042;-80
2023/07/25 06:57:55;;;;;;;3.10;1.73;;;;;;;;;;5067867;28;20068;-81
2023/07/25 07:00:21;;;;;;;3.00;1.70;;;;;;;;;;5061560;28;20064;-81
2023/07/25 07:02:46;;;;;;;2.92;1.50;;;;;;;;;;5071565;28;20123;-81
2023/07/25 07:05:12;;;;;;;6.55;1.80;;;;;;;;;;5058376;28;20072;-81
2023/07/25 07:07:40;;;;;;;2.67;1.70;;;;;;;;;;5064872;28;20078;-82
2023/07/25 07:10:06;;;;;;;3.67;2.00;;;;;;;;;;5074300;28;20025;-81
2023/07/25 07:12:31;;;;;;;3.35;1.75;;;;;;;;;;5063832;28;20495;-81
2023/07/25 07:14:57;;;;;;;2.58;1.80;;;;;;;;;;5057017;28;20527;-81
2023/07/25 07:17:22;;;;;;;2.92;1.52;;;;;;;;;;5053838;28;20417;-80
2023/07/25 07:19:48;;;;;;;3.17;1.92;;;;;;;;;;5067769;28;20123;-80
2023/07/25 07:22:13;;;;;;;3.55;1.90;;;;;;;;;;5048971;28;20032;-82
2023/07/25 07:24:40;;;;;;;2.40;1.70;;;;;;;;;;5056735;28;20037;-83
2023/07/25 07:27:06;;;;;;;2.88;1.63;;;;;;;;;;5055866;28;20025;-79
2023/07/25 07:29:31;;;;;;;2.88;1.60;;;;;;;;;;5055462;28;20044;-79
2023/07/25 07:31:59;;;;;;;3.58;1.67;;;;;;;;;;5056189;28;20411;-79
2023/07/25 07:34:25;;;;;;;3.97;1.83;;;;;;;;;;5056574;28;20037;-79
2023/07/25 07:36:50;;;;;;;2.15;1.40;;;;;;;;;;5057055;28;20029;-79
2023/07/25 07:39:16;;;;;;;2.50;1.42;;;;;;;;;;5043738;28;20084;-79
2023/07/25 07:41:41;;;;;;;2.22;1.35;;;;;;;;;;5056568;28;20033;-84
2023/07/25 07:44:07;;;;;;;3.05;1.48;;;;;;;;;;5076579;28;20046;-84
2023/07/25 07:46:34;;;;;;;2.28;1.63;;;;;;;;;;5058745;28;20044;-80
2023/07/25 07:49:00;;;;;;;3.65;1.40;;;;;;;;;;5051565;28;20416;-81
2023/07/25 07:51:26;;;;;;;2.63;1.60;;;;;;;;;;5059469;28;20043;-86
2023/07/25 07:53:52;;;;;;;2.78;1.42;;;;;;;;;;5071255;28;20052;-82
2023/07/25 07:56:17;;;;;;;2.22;1.70;;;;;;;;;;5062249;28;20025;-79
2023/07/25 07:58:43;;;;;;;2.60;1.60;;;;;;;;;;5067062;28;20041;-81
2023/07/25 08:01:16;;;;;;;2.67;1.50;;;;;;;;;;5060953;28;20083;-81
2023/07/25 08:03:42;;;;;;;;;;;;;;;;;;5063321;28;20029;-79
2023/07/25 08:06:07;;;;;;;2.63;1.33;;;;;;;;;;5062778;28;19923;-82
2023/07/25 08:08:33;;;;;;;3.80;1.50;;;;;;;;;;5067847;28;20093;-83
2023/07/25 08:10:58;;;;;;;3.78;1.70;;;;;;;;;;5059534;28;20041;-83
2023/07/25 08:13:24;;;;;;;2.40;1.70;;;;;;;;;;5045483;28;20044;-83
2023/07/25 08:15:49;;;;;;;2.28;1.73;;;;;;;;;;5056813;28;20032;-83
2023/07/25 08:18:15;;;;;;;2.42;1.88;;;;;;;;;;5065675;28;20044;-83
2023/07/25 08:20:40;;;;;;;4.35;1.90;;;;;;;;;;5055301;28;20032;-83
2023/07/25 08:23:06;;;;;;;2.38;1.80;;;;;;;;;;5044959;28;20407;-83
2023/07/25 08:25:31;;;;;;;2.92;1.60;;;;;;;;;;5054688;28;20037;-82
2023/07/25 08:27:57;;;;;;;3.28;1.80;;;;;;;;;;5064539;28;20135;-83
2023/07/25 08:30:22;;;;;;;2.60;1.65;;;;;;;;;;5054479;28;20056;-83
2023/07/25 08:32:48;;;;;;;2.88;1.73;;;;;;;;;;5052997;28;20047;-83
2023/07/25 08:35:14;;;;;;;2.35;1.60;;;;;;;;;;5052378;28;20059;-83
2023/07/25 08:37:39;;;;;;;3.13;1.80;;;;;;;;;;5052669;28;20021;-84
2023/07/25 08:40:05;;;;;;;4.45;2.03;;;;;;;;;;5056296;28;20128;-83
2023/07/25 08:42:32;;;;;;;2.85;1.80;;;;;;;;;;5065897;28;20075;-83
2023/07/25 08:44:59;;;;;;;3.78;1.60;;;;;;;;;;5054565;28;20515;-83
2023/07/25 08:47:28;;;;;;;2.85;1.95;;;;;;;;;;5042947;28;20064;-83
2023/07/25 08:49:56;;;;;;;2.08;1.60;;;;;;;;;;5061301;28;20068;-83
2023/07/25 08:52:26;;;;;;;3.13;2.00;;;;;;;;;;5063202;28;20042;-84
2023/07/25 08:54:52;;;;;;;2.22;1.60;;;;;;;;;;5052860;28;20170;-83
2023/07/25 08:57:19;;;;;;;3.22;1.95;;;;;;;;;;5046379;28;20491;-83
2023/07/25 08:59:47;;;;;;;6.13;1.90;;;;;;;;;;5051111;28;20056;-83
2023/07/25 09:02:13;;;;;;;2.58;1.60;;;;;;;;;;5061112;28;20021;-83
2023/07/25 09:04:39;;;;;;;2.63;1.60;;;;;;;;;;5039110;28;20033;-83
2023/07/25 09:07:05;;;;;;;2.30;1.60;;;;;;;;;;5058241;28;20029;-83
2023/07/25 09:09:31;;;;;;;2.33;1.63;;;;;;;;;;5057664;28;20092;-83
2023/07/25 09:11:58;;;;;;;4.10;1.75;;;;;;;;;;5049294;28;20040;-83
2023/07/25 09:14:23;;;;;;;3.33;1.50;;;;;;;;;;5061236;28;20072;-83
2023/07/25 09:16:49;;;;;;;3.38;1.70;;;;;;;;;;5063823;28;20512;-84
2023/07/25 09:19:14;;;;;;;3.17;1.90;;;;;;;;;;5058484;28;20045;-84
2023/07/25 09:21:48;;;;;;;6.05;1.90;;;;;;;;;;5037600;28;20048;-83
2023/07/25 09:24:14;;;;;;;2.67;1.67;;;;;;;;;;5064765;28;20043;-83
2023/07/25 09:26:41;;;;;;;2.85;1.83;;;;;;;;;;5058397;28;20016;-83
2023/07/25 09:29:07;;;;;;;3.53;1.77;;;;;;;;;;5049185;28;20041;-83
2023/07/25 09:31:43;;;;;;;2.60;1.63;;;;;;;;;;5051522;28;20051;-83
2023/07/25 09:34:08;;;;;;;2.10;1.60;;;;;;;;;;5050973;28;20519;-82
2023/07/25 09:36:33;;;;;;;3.65;2.00;;;;;;;;;;5058200;28;20030;-83
2023/07/25 09:39:00;;;;;;;2.97;2.10;;;;;;;;;;5055058;28;20045;-83
2023/07/25 09:41:26;;;;;;;4.85;1.90;;;;;;;;;;5057227;28;20043;-82
2023/07/25 09:43:52;;;;;;;2.30;1.80;;;;;;;;;;5048608;28;20024;-85
2023/07/25 09:46:18;;;;;;;5.03;1.80;;;;;;;;;;5050825;28;20087;-81
2023/07/25 09:48:46;;;;;;;3.75;1.77;;;;;;;;;;5063714;28;20040;-82
2023/07/25 09:51:12;;;;;;;3.63;2.08;;;;;;;;;;5053472;28;20400;-83
2023/07/25 09:53:41;;;;;;;3.92;1.83;;;;;;;;;;5048909;28;20025;-83
2023/07/25 09:56:07;;;;;;;2.65;1.80;;;;;;;;;;5045821;28;20040;-83
2023/07/25 09:58:33;;;;;;;2.72;1.70;;;;;;;;;;5065231;28;20033;-84
2023/07/25 10:01:00;;;;;;;2.92;1.85;;;;;;;;;;5058047;28;20137;-82
2023/07/25 10:03:28;;;;;;;6.20;1.77;;;;;;;;;;5046842;28;20057;-83
2023/07/25 10:05:54;;;;;;;2.55;1.65;;;;;;;;;;5055841;28;20041;-83
2023/07/25 10:08:21;;;;;;;2.50;1.70;;;;;;;;;;5048864;28;20028;-83
2023/07/25 10:10:47;;;;;;;2.35;1.80;;;;;;;;;;5057826;28;20043;-83
2023/07/25 10:13:14;;;;;;;4.80;2.10;;;;;;;;;;5057437;28;20041;-83
2023/07/25 10:15:40;;;;;;;2.53;1.90;;;;;;;;;;5055409;28;20032;-82
2023/07/25 10:18:22;;;;;;;2.22;1.70;;;;;;;;;;5046878;28;20033;-83
2023/07/25 10:20:52;;;;;;;2.38;1.75;;;;;;;;;;5053765;28;20045;-84
2023/07/25 10:23:18;;;;;;;2.95;1.80;;;;;;;;;;5067203;28;20283;-83
2023/07/25 10:25:44;;;;;;;2.50;1.63;;;;;;;;;;5058687;28;20161;-82
2023/07/25 10:28:10;;;;;;;2.55;1.75;;;;;;;;;;5048645;28;20489;-82
2023/07/25 10:30:40;;;;;;;2.85;1.88;;;;;;;;;;5055018;28;20037;-83
2023/07/25 10:33:07;;;;;;;3.05;1.70;;;;;;;;;;5069817;28;20397;-83
2023/07/25 10:35:53;;;;;;;2.97;1.80;;;;;;;;;;5063235;28;20025;-82
2023/07/25 10:38:40;;;;;;;4.38;1.65;;;;;;;;;;5058027;28;20986;-83
2023/07/25 10:41:09;;;;;;;2.92;1.67;;;;;;;;;;5041802;28;20037;-82
2023/07/25 10:43:55;;;;;;;2.22;1.60;;;;;;;;;;5056681;28;20118;-83
2023/07/25 10:46:22;;;;;;;3.45;1.70;;;;;;;;;;5064437;28;20200;-82
2023/07/25 10:48:49;;;;;;;4.35;1.77;;;;;;;;;;5061461;28;20059;-83
2023/07/25 10:51:17;;;;;;;3.13;1.95;;;;;;;;;;5052989;28;20056;-83
2023/07/25 10:54:10;;;;;;;3.42;1.90;;;;;;;;;;5043003;28;20040;-83
2023/07/25 10:56:40;;;;;;;2.35;1.70;;;;;;;;;;5069464;28;20066;-83
2023/07/25 10:59:08;;;;;;;4.10;1.83;;;;;;;;;;5060814;28;20041;-83
2023/07/25 11:01:43;;;;;;;2.60;1.80;;;;;;;;;;5051598;28;20462;-83
2023/07/25 11:04:29;;;;;;;4.80;1.85;;;;;;;;;;5057294;28;20067;-83
2023/07/25 11:07:08;;;;;;;4.20;1.92;;;;;;;;;;5064585;28;20041;-83
2023/07/25 11:09:39;;;;;;;2.70;2.10;;;;;;;;;;5068145;28;20041;-83
2023/07/25 11:12:05;;;;;;;3.97;1.85;;;;;;;;;;5063890;28;20044;-83
2023/07/25 11:14:31;;;;;;;3.75;2.10;;;;;;;;;;5055247;28;20260;-83
2023/07/25 11:16:57;;;;;;;3.80;1.90;;;;;;;;;;5059341;28;20071;-83
2023/07/25 11:19:26;;;;;;;3.17;2.00;;;;;;;;;;5061553;28;20033;-83
2023/07/25 11:21:52;;;;;;;2.80;1.95;;;;;;;;;;5068129;28;20041;-83
2023/07/25 11:24:19;;;;;;;2.85;2.00;;;;;;;;;;5052949;28;20043;-83
2023/07/25 11:26:45;;;;;;;2.65;1.85;;;;;;;;;;5045185;28;20037;-83
2023/07/25 11:29:12;;;;;;;2.90;1.92;;;;;;;;;;5066114;28;20047;-83
2023/07/25 11:31:45;;;;;;;4.05;1.90;;;;;;;;;;5064114;28;20045;-83
2023/07/25 11:34:12;;;;;;;4.85;1.85;;;;;;;;;;5050030;28;20041;-82
2023/07/25 11:36:39;;;;;;;3.35;2.20;;;;;;;;;;5055761;28;20021;-82
2023/07/25 11:39:07;;;;;;;3.55;1.80;;;;;;;;;;5054427;28;20098;-82
2023/07/25 11:41:39;;;;;;;2.25;1.73;;;;;;;;;;5060513;28;20125;-83
2023/07/25 11:44:09;;;;;;;2.83;1.90;;;;;;;;;;5070931;28;20407;-83
2023/07/25 11:46:36;;;;;;;4.72;1.88;;;;;;;;;;5076071;28;20029;-82
2023/07/25 11:49:03;;;;;;;3.03;1.77;;;;;;;;;;5052683;28;20076;-81
2023/07/25 11:51:29;;;;;;;2.92;1.92;;;;;;;;;;5062283;28;20041;-85
2023/07/25 11:53:55;;;;;;;3.17;1.95;;;;;;;;;;5067937;28;20152;-85
2023/07/25 11:56:20;;;;;;;2.90;1.90;;;;;;;;;;5063263;28;20571;-85
2023/07/25 11:58:48;;;;;;;2.45;1.80;;;;;;;;;;5068715;28;20060;-85
2023/07/25 12:01:14;;;;;;;3.22;1.90;;;;;;;;;;5043804;28;20041;-85
2023/07/25 12:03:47;;;;;;;3.55;1.80;;;;;;;;;;5064388;28;20067;-85
2023/07/25 12:06:13;;;;;;;2.60;1.70;;;;;;;;;;5056118;28;20040;-86
2023/07/25 12:08:44;;;;;;;3.35;2.00;;;;;;;;;;5054305;28;20040;-81
2023/07/25 12:11:12;;;;;;;3.45;1.85;;;;;;;;;;5058243;28;20503;-82
2023/07/25 12:13:54;;;;;;;3.20;1.70;;;;;;;;;;5051074;28;20069;-85
2023/07/25 12:16:24;;;;;;;2.65;1.90;;;;;;;;;;5061116;28;20029;-84
2023/07/25 12:19:02;;;;;;;2.70;1.90;;;;;;;;;;5065323;28;20036;-84
2023/07/25 12:21:30;;;;;;;3.65;1.92;;;;;;;;;;5060741;28;20033;-83
2023/07/25 12:23:58;;;;;;;2.92;1.90;;;;;;;;;;5053282;28;20057;-82
2023/07/25 12:26:23;;;;;;;2.70;1.80;;;;;;;;;;5062313;28;20456;-83
2023/07/25 12:28:50;;;;;;;3.53;1.80;;;;;;;;;;5064049;28;20557;-83
2023/07/25 12:31:16;;;;;;;3.65;2.00;;;;;;;;;;5059563;28;20045;-82
2023/07/25 12:33:47;;;;;;;3.45;1.98;;;;;;;;;;5047260;28;20052;-83
2023/07/25 12:36:14;;;;;;;3.15;1.95;;;;;;;;;;5053624;28;20040;-83
2023/07/25 12:38:39;;;;;;;3.15;2.05;;;;;;;;;;5066405;28;20454;-82
2023/07/25 12:41:05;;;;;;;2.63;1.90;;;;;;;;;;5057204;28;20123;-81
2023/07/25 12:43:31;;;;;;;2.58;1.88;;;;;;;;;;5063047;28;20047;-81
2023/07/25 12:45:56;;;;;;;2.92;1.60;;;;;;;;;;5062397;28;20059;-82
2023/07/25 12:48:22;;;;;;;2.95;1.80;;;;;;;;;;5055214;28;20032;-83
2023/07/25 12:50:48;;;;;;;3.13;2.00;;;;;;;;;;5063815;28;20033;-82
2023/07/25 12:53:13;;;;;;;2.20;1.60;;;;;;;;;;5070028;28;20572;-82
2023/07/25 12:55:39;;;;;;;3.38;1.83;;;;;;;;;;5048367;28;20052;-82
2023/07/25 12:58:04;;;;;;;3.22;1.73;;;;;;;;;;5047386;28;20040;-82
2023/07/25 13:00:30;;;;;;;2.85;1.90;;;;;;;;;;5069662;28;20052;-81
2023/07/25 13:02:58;;;;;;;2.20;1.55;;;;;;;;;;5066066;28;20041;-81
2023/07/25 13:05:26;;;;;;;3.28;1.60;;;;;;;;;;5058863;28;20037;-82
2023/07/25 13:07:51;;;;;;;3.05;1.80;;;;;;;;;;5050691;28;20042;-80
2023/07/25 13:10:17;;;;;;;2.60;1.60;;;;;;;;;;5062036;28;20124;-80
2023/07/25 13:12:42;;;;;;;2.22;1.52;;;;;;;;;;5067871;28;20041;-82
2023/07/25 13:15:08;;;;;;;4.22;1.70;;;;;;;;;;5059858;28;20384;-81
2023/07/25 13:17:34;;;;;;;2.60;1.67;;;;;;;;;;5072743;28;20112;-85
2023/07/25 13:20:00;;;;;;;2.58;1.70;;;;;;;;;;5058275;28;20041;-84
2023/07/25 13:22:26;;;;;;;2.72;1.85;;;;;;;;;;5044452;28;20068;-85
2023/07/25 13:24:55;;;;;;;2.95;1.60;;;;;;;;;;5063316;28;20478;-84
2023/07/25 13:27:25;;;;;;;2.20;1.73;;;;;;;;;;5063190;28;20053;-84
2023/07/25 13:29:51;;;;;;;3.55;1.70;;;;;;;;;;5054461;28;20051;-83
2023/07/25 13:32:16;;;;;;;3.08;1.92;;;;;;;;;;5047146;28;20037;-84
2023/07/25 13:34:42;;;;;;;3.97;1.90;;;;;;;;;;5068463;28;20061;-83
2023/07/25 13:37:07;;;;;;;3.17;1.73;;;;;;;;;;5062799;28;20112;-85
2023/07/25 13:39:33;;;;;;;2.67;1.60;;;;;;;;;;5063020;28;20055;-86
2023/07/25 13:41:58;;;;;;;2.80;1.80;;;;;;;;;;5062867;28;20039;-84
2023/07/25 13:44:24;;;;;;;2.25;1.60;;;;;;;;;;5059072;28;20032;-85
2023/07/25 13:46:50;;;;;;;2.35;1.80;;;;;;;;;;5068118;28;20033;-85
2023/07/25 13:49:16;;;;;;;2.38;1.67;;;;;;;;;;5059256;28;20032;-85
2023/07/25 13:51:41;;;;;;;2.40;1.80;;;;;;;;;;5058085;28;20041;-87
2023/07/25 13:54:07;;;;;;;2.90;1.70;;;;;;;;;;5058753;28;20044;-84
2023/07/25 13:56:32;;;;;;;3.88;1.80;;;;;;;;;;5057979;28;20036;-84
2023/07/25 13:58:58;;;;;;;2.60;1.70;;;;;;;;;;5065630;28;20042;-84
2023/07/25 14:01:24;;;;;;;4.43;1.70;;;;;;;;;;5068039;28;20040;-88
2023/07/25 14:03:49;;;;;;;10.18;4.45;;;;;;;;;;5051808;28;20033;-85
2023/07/25 14:06:14;;;;;;;3.25;1.95;;;;;;;;;;5052793;28;20033;-85
2023/07/25 14:08:40;;;;;;;4.50;1.90;;;;;;;;;;5063880;28;20110;-85
2023/07/25 14:11:06;;;;;;;5.45;1.80;;;;;;;;;;5065823;28;20037;-85
2023/07/25 14:13:31;;;;;;;2.85;1.67;;;;;;;;;;5052477;28;20036;-83
2023/07/25 14:15:57;;;;;;;2.20;1.63;;;;;;;;;;5063734;28;20484;-88
2023/07/25 14:18:23;;;;;;;4.68;1.60;;;;;;;;;;5055047;28;20075;-84
2023/07/25 14:20:49;;;;;;;2.50;1.58;;;;;;;;;;5067465;28;20045;-84
2023/07/25 14:23:14;;;;;;;3.05;1.70;;;;;;;;;;5068586;28;20033;-84
2023/07/25 14:25:40;;;;;;;2.50;1.70;;;;;;;;;;5058780;28;20419;-83
2023/07/25 14:28:06;;;;;;;2.05;1.38;;;;;;;;;;5043770;28;20064;-85
2023/07/25 14:30:33;;;;;;;2.25;1.40;;;;;;;;;;5046242;28;20068;-84
2023/07/25 14:32:59;;;;;;;2.75;1.70;;;;;;;;;;5072625;28;20037;-84
2023/07/25 14:35:25;;;;;;;2.22;1.60;;;;;;;;;;5068733;28;20045;-85
2023/07/25 14:37:50;;;;;;;3.05;1.70;;;;;;;;;;5054750;28;20034;-85